Time;durP1;ratioP1;P1;durP2;ratioP2;P2;SDS_P1;SDS_P2;PMS_P1;PMS_P2;Temp;Humidity;BMP_temperature;BMP_pressure;BME280_temperature;BME280_humidity;BME280_pressure;Samples;Min_cycle;Max_cycle;Signal;HPM_P1;HPM_P2
2023/09/05 00:02:15;;;;;;;7.03;5.53;;;;;;;17.64;100.00;100765.25;5050828;28;20740;-83
2023/09/05 00:04:46;;;;;;;6.72;5.30;;;;;;;17.60;100.00;100775.47;5060266;28;20028;-82
2023/09/05 00:07:11;;;;;;;7.32;5.57;;;;;;;17.55;100.00;100772.53;5055157;28;20370;-83
2023/09/05 00:09:37;;;;;;;8.65;5.22;;;;;;;17.51;100.00;100778.41;5060450;28;20035;-82
2023/09/05 00:12:04;;;;;;;11.38;6.10;;;;;;;17.46;100.00;100777.13;5048669;28;20036;-82
2023/09/05 00:14:30;;;;;;;9.88;6.38;;;;;;;17.40;100.00;100774.34;5060603;28;20021;-82
2023/09/05 00:16:55;;;;;;;6.03;5.40;;;;;;;17.36;100.00;100776.53;5040124;28;20472;-81
2023/09/05 00:19:21;;;;;;;9.48;6.10;;;;;;;17.32;100.00;100769.91;5040300;28;20040;-83
2023/09/05 00:21:47;;;;;;;7.38;5.90;;;;;;;17.27;100.00;100770.47;5032975;28;20071;-83
2023/09/05 00:24:27;;;;;;;6.78;6.18;;;;;;;17.22;100.00;100757.66;5023667;28;20102;-82
2023/09/05 00:26:58;;;;;;;8.98;6.72;;;;;;;17.20;100.00;100761.53;5050254;28;20489;-82
2023/09/05 00:29:26;;;;;;;10.73;6.82;;;;;;;17.17;100.00;100764.56;5050492;28;21463;-82
2023/09/05 00:31:53;;;;;;;11.57;7.00;;;;;;;17.18;100.00;100756.34;5034585;28;20071;-83
2023/09/05 00:34:19;;;;;;;10.38;6.82;;;;;;;17.16;100.00;100760.19;5058954;28;20500;-82
2023/09/05 00:36:47;;;;;;;7.65;6.78;;;;;;;17.20;100.00;100756.19;5052199;28;20029;-82
2023/09/05 00:39:13;;;;;;;9.73;7.38;;;;;;;17.26;100.00;100755.44;5067218;28;20032;-83
2023/09/05 00:41:39;;;;;;;8.38;7.38;;;;;;;17.28;100.00;100747.25;5067722;28;20042;-83
2023/09/05 00:44:05;;;;;;;9.15;6.65;;;;;;;17.31;100.00;100741.56;5070241;28;20048;-83
2023/09/05 00:46:33;;;;;;;9.20;7.50;;;;;;;17.34;100.00;100739.31;5044277;28;20036;-82
2023/09/05 00:49:02;;;;;;;9.20;6.97;;;;;;;17.32;100.00;100732.50;5061303;28;20123;-83
2023/09/05 00:51:31;;;;;;;8.60;7.85;;;;;;;17.28;100.00;100740.06;5042492;28;20037;-82
2023/09/05 00:54:02;;;;;;;9.55;8.65;;;;;;;17.25;100.00;100734.25;5065617;28;20435;-82
2023/09/05 00:56:28;;;;;;;10.40;8.77;;;;;;;17.20;100.00;100729.47;5069323;28;20429;-83
2023/09/05 00:58:55;;;;;;;13.80;8.93;;;;;;;17.26;100.00;100726.06;5032614;28;20060;-83
2023/09/05 01:01:21;;;;;;;9.93;8.35;;;;;;;17.34;100.00;100730.50;5062914;28;20036;-83
2023/09/05 01:03:46;;;;;;;11.40;9.48;;;;;;;17.37;100.00;100730.13;5062260;28;20079;-83
2023/09/05 01:06:22;;;;;;;11.13;8.85;;;;;;;17.45;100.00;100726.53;5060107;28;20086;-83
2023/09/05 01:08:56;;;;;;;;;;;;;;;17.40;100.00;100735.09;5054276;28;20028;-83
2023/09/05 01:11:22;;;;;;;14.10;9.10;;;;;;;17.47;100.00;100740.56;5079297;28;19939;-83
2023/09/05 01:13:50;;;;;;;12.77;8.80;;;;;;;17.55;100.00;100728.94;5053962;28;20633;-82
2023/09/05 01:16:15;;;;;;;10.10;8.40;;;;;;;17.55;100.00;100726.28;5078746;28;20040;-82
2023/09/05 01:18:41;;;;;;;13.02;9.77;;;;;;;17.58;100.00;100724.03;5041093;28;20043;-82
2023/09/05 01:21:16;;;;;;;13.00;10.25;;;;;;;17.55;100.00;100711.06;5047047;28;20036;-82
2023/09/05 01:23:49;;;;;;;10.30;9.13;;;;;;;17.51;100.00;100711.59;5042493;28;20036;-82
2023/09/05 01:26:16;;;;;;;12.10;10.10;;;;;;;17.47;100.00;100709.31;5056596;28;20082;-82
2023/09/05 01:28:43;;;;;;;11.40;10.32;;;;;;;17.43;100.00;100710.69;5069751;28;20485;-83
2023/09/05 01:31:13;;;;;;;13.95;10.93;;;;;;;17.45;100.00;100707.84;5053228;28;20086;-82
2023/09/05 01:33:39;;;;;;;15.82;11.23;;;;;;;17.36;100.00;100699.06;5046360;28;20055;-82
2023/09/05 01:36:06;;;;;;;13.77;10.95;;;;;;;17.28;100.00;100697.31;5041052;28;20043;-82
2023/09/05 01:38:33;;;;;;;13.05;11.65;;;;;;;17.25;100.00;100700.34;5023173;28;20469;-83
2023/09/05 01:40:59;;;;;;;14.90;12.48;;;;;;;17.19;100.00;100698.41;5058454;28;20551;-82
2023/09/05 01:43:25;;;;;;;15.77;13.90;;;;;;;17.13;100.00;100688.44;5046153;28;20038;-82
2023/09/05 01:45:51;;;;;;;15.98;13.38;;;;;;;17.05;100.00;100690.16;5036752;28;20040;-82
2023/09/05 01:48:17;;;;;;;15.73;13.55;;;;;;;16.99;100.00;100683.69;5052435;28;20020;-82
2023/09/05 01:50:43;;;;;;;17.58;13.82;;;;;;;16.97;100.00;100682.22;5019010;28;20032;-82
2023/09/05 01:53:09;;;;;;;21.58;15.25;;;;;;;16.86;100.00;100679.00;5061781;28;20024;-82
2023/09/05 01:55:34;;;;;;;17.15;15.40;;;;;;;16.82;100.00;100680.34;5078353;28;20455;-81
2023/09/05 01:58:00;;;;;;;18.42;15.65;;;;;;;16.82;100.00;100684.84;5023364;28;20099;-82
2023/09/05 02:00:26;;;;;;;19.23;15.02;;;;;;;16.82;100.00;100674.16;5053447;28;20075;-82
2023/09/05 02:02:51;;;;;;;18.88;15.30;;;;;;;16.81;100.00;100670.69;5054180;28;20079;-82
2023/09/05 02:05:17;;;;;;;19.38;14.85;;;;;;;16.83;100.00;100673.19;5043351;28;20574;-82
2023/09/05 02:07:43;;;;;;;25.25;16.50;;;;;;;16.89;100.00;100672.47;5067615;28;20047;-83
2023/09/05 02:10:10;;;;;;;18.50;16.45;;;;;;;16.89;100.00;100675.13;5076364;28;20035;-82
2023/09/05 02:12:37;;;;;;;23.75;15.90;;;;;;;16.89;100.00;100671.63;5057984;28;20045;-82
2023/09/05 02:15:03;;;;;;;18.05;15.90;;;;;;;16.85;100.00;100666.63;5071161;28;20527;-82
2023/09/05 02:17:34;;;;;;;23.13;16.98;;;;;;;16.84;100.00;100672.16;5071298;28;20027;-82
2023/09/05 02:20:00;;;;;;;23.20;16.35;;;;;;;16.82;100.00;100669.66;5053478;28;20070;-82
2023/09/05 02:22:25;;;;;;;20.45;17.38;;;;;;;16.83;100.00;100665.97;5065478;28;20060;-82
2023/09/05 02:24:51;;;;;;;19.10;16.27;;;;;;;16.82;100.00;100664.34;5068283;28;20045;-81
2023/09/05 02:27:18;;;;;;;22.33;16.52;;;;;;;16.83;100.00;100660.63;5057021;28;20488;-82
2023/09/05 02:29:51;;;;;;;23.05;17.98;;;;;;;16.81;100.00;100645.81;5079347;28;20032;-82
2023/09/05 02:32:19;;;;;;;21.88;17.27;;;;;;;16.78;100.00;100641.69;5067689;28;20028;-83
2023/09/05 02:34:52;;;;;;;23.23;17.48;;;;;;;16.78;100.00;100644.34;5054837;28;20088;-83
2023/09/05 02:37:19;;;;;;;21.80;17.97;;;;;;;16.71;100.00;100641.56;5036414;28;20038;-82
2023/09/05 02:39:45;;;;;;;20.25;16.85;;;;;;;16.74;100.00;100638.53;5020060;28;21347;-83
2023/09/05 02:42:11;;;;;;;25.40;18.02;;;;;;;16.79;100.00;100637.16;5031318;28;20052;-83
2023/09/05 02:44:37;;;;;;;22.70;16.63;;;;;;;16.84;100.00;100640.13;5048186;28;20033;-82
2023/09/05 02:47:03;;;;;;;24.35;17.15;;;;;;;16.91;100.00;100640.25;5028133;28;20040;-82
2023/09/05 02:49:28;;;;;;;22.45;17.50;;;;;;;16.93;100.00;100640.91;5063594;28;20040;-82
2023/09/05 02:51:56;;;;;;;21.65;17.23;;;;;;;16.97;100.00;100643.03;5033827;28;20111;-82
2023/09/05 02:54:22;;;;;;;20.77;17.75;;;;;;;16.98;100.00;100639.31;5048208;28;20040;-82
2023/09/05 02:56:48;;;;;;;23.55;18.08;;;;;;;16.98;100.00;100639.31;5019261;28;20037;-82
2023/09/05 02:59:14;;;;;;;23.02;18.10;;;;;;;16.97;100.00;100635.00;5043418;28;20034;-83
2023/09/05 03:01:39;;;;;;;26.98;17.77;;;;;;;16.89;100.00;100624.41;5028146;28;20037;-81
2023/09/05 03:04:05;;;;;;;24.52;18.70;;;;;;;16.82;100.00;100616.28;5058680;28;20033;-82
2023/09/05 03:06:31;;;;;;;24.20;19.38;;;;;;;16.71;100.00;100624.72;5038402;28;20127;-81
2023/09/05 03:08:57;;;;;;;24.27;19.20;;;;;;;16.63;100.00;100630.16;5046712;28;20033;-83
2023/09/05 03:11:22;;;;;;;21.92;18.80;;;;;;;16.58;100.00;100628.03;5035549;28;20036;-82
2023/09/05 03:13:50;;;;;;;22.42;19.98;;;;;;;16.53;100.00;100625.88;5033248;28;20116;-82
2023/09/05 03:16:17;;;;;;;29.38;20.58;;;;;;;16.50;100.00;100623.56;5049675;28;20021;-82
2023/09/05 03:18:47;;;;;;;26.23;20.10;;;;;;;16.46;100.00;100620.44;5043776;28;20032;-82
2023/09/05 03:21:12;;;;;;;27.70;20.67;;;;;;;16.50;100.00;100626.22;5055535;28;20032;-82
2023/09/05 03:23:38;;;;;;;30.25;21.00;;;;;;;16.52;100.00;100626.88;5014326;28;20044;-82
2023/09/05 03:26:05;;;;;;;33.58;21.08;;;;;;;16.56;100.00;100630.84;5023595;28;20047;-82
2023/09/05 03:28:42;;;;;;;28.67;21.33;;;;;;;16.61;100.00;100620.47;5052597;28;20060;-82
2023/09/05 03:31:11;;;;;;;31.55;21.67;;;;;;;16.59;100.00;100621.66;5034772;28;20044;-82
2023/09/05 03:33:37;;;;;;;25.58;21.15;;;;;;;16.59;100.00;100621.66;5052390;28;20060;-82
2023/09/05 03:36:05;;;;;;;29.98;20.67;;;;;;;16.62;100.00;100621.31;5046477;28;20049;-82
2023/09/05 03:38:31;;;;;;;32.97;22.20;;;;;;;16.63;100.00;100628.28;5035594;28;20037;-82
2023/09/05 03:40:57;;;;;;;26.10;21.00;;;;;;;16.61;100.00;100625.00;5025423;28;20034;-83
2023/09/05 03:43:23;;;;;;;28.67;22.13;;;;;;;16.61;100.00;100633.00;5034442;28;20041;-82
2023/09/05 03:45:49;;;;;;;26.45;20.88;;;;;;;16.54;100.00;100640.06;5011858;28;20044;-82
2023/09/05 03:48:16;;;;;;;29.13;22.98;;;;;;;16.49;100.00;100632.59;5046887;28;20033;-82
2023/09/05 03:50:41;;;;;;;29.13;22.27;;;;;;;16.50;100.00;100628.91;5031846;28;20075;-83
2023/09/05 03:53:07;;;;;;;28.10;21.40;;;;;;;16.53;100.00;100635.72;5015122;28;20032;-82
2023/09/05 03:55:34;;;;;;;33.58;22.63;;;;;;;16.54;100.00;100635.56;5044016;28;20070;-82
2023/09/05 03:58:02;;;;;;;31.23;21.90;;;;;;;16.55;100.00;100633.69;5048703;28;20451;-82
2023/09/05 04:00:32;;;;;;;30.60;21.52;;;;;;;16.51;100.00;100627.91;5038091;28;20089;-82
2023/09/05 04:02:57;;;;;;;25.55;20.52;;;;;;;16.48;100.00;100629.06;5053432;28;20099;-83
2023/09/05 04:05:24;;;;;;;29.58;23.05;;;;;;;16.44;100.00;100630.47;5028993;28;20036;-82
2023/09/05 04:07:49;;;;;;;30.90;22.45;;;;;;;16.42;100.00;100634.31;5062458;28;20056;-82
2023/09/05 04:10:15;;;;;;;31.55;21.30;;;;;;;16.45;100.00;100634.78;5052302;28;20083;-82
2023/09/05 04:12:41;;;;;;;29.52;22.48;;;;;;;16.45;100.00;100633.97;5059576;28;20032;-82
2023/09/05 04:15:08;;;;;;;27.40;21.80;;;;;;;16.46;100.00;100630.28;5014483;28;20032;-82
2023/09/05 04:17:34;;;;;;;29.67;22.42;;;;;;;16.46;100.00;100625.78;5029202;28;20043;-82
2023/09/05 04:20:02;;;;;;;29.90;21.95;;;;;;;16.48;100.00;100626.41;5039388;28;20040;-83
2023/09/05 04:22:27;;;;;;;31.23;22.02;;;;;;;16.51;100.00;100624.41;5058875;28;20091;-82
2023/09/05 04:24:56;;;;;;;27.98;21.40;;;;;;;16.50;100.00;100623.56;5032479;28;20446;-82
2023/09/05 04:27:23;;;;;;;28.85;21.75;;;;;;;16.42;100.00;100619.13;5051985;28;20378;-82
2023/09/05 04:29:51;;;;;;;29.17;21.55;;;;;;;16.35;100.00;100627.03;5029935;28;20091;-82
2023/09/05 04:32:26;;;;;;;28.33;20.60;;;;;;;16.34;100.00;100619.22;5034538;28;20033;-82
2023/09/05 04:35:05;;;;;;;25.83;20.88;;;;;;;16.34;100.00;100624.53;5040972;28;20072;-82
2023/09/05 04:37:31;;;;;;;30.55;21.30;;;;;;;16.27;100.00;100632.41;5043785;28;20041;-83
2023/09/05 04:40:01;;;;;;;28.60;20.55;;;;;;;16.30;100.00;100628.56;5036566;28;20052;-82
2023/09/05 04:42:27;;;;;;;31.52;21.13;;;;;;;16.33;100.00;100626.38;5022919;28;20079;-82
2023/09/05 04:44:52;;;;;;;26.27;20.65;;;;;;;16.34;100.00;100624.53;5059738;28;20448;-82
2023/09/05 04:47:25;;;;;;;26.85;19.20;;;;;;;16.39;100.00;100627.47;5019561;28;20045;-83
2023/09/05 04:49:53;;;;;;;27.67;20.02;;;;;;;16.37;100.00;100630.34;5030730;28;20040;-82
2023/09/05 04:52:20;;;;;;;25.13;19.77;;;;;;;16.40;100.00;100629.16;5051804;28;20037;-82
2023/09/05 04:54:46;;;;;;;25.05;18.80;;;;;;;16.43;100.00;100627.97;5018174;28;20029;-82
2023/09/05 04:57:16;;;;;;;31.38;19.83;;;;;;;16.49;100.00;100632.59;5043611;28;20424;-82
2023/09/05 04:59:43;;;;;;;23.85;19.10;;;;;;;16.48;100.00;100633.59;5050365;28;20087;-82
2023/09/05 05:02:10;;;;;;;24.10;18.38;;;;;;;16.49;100.00;100633.41;5037929;28;20033;-82
2023/09/05 05:04:36;;;;;;;25.85;18.10;;;;;;;16.51;100.00;100632.41;5056701;28;20045;-82
2023/09/05 05:07:02;;;;;;;24.15;17.55;;;;;;;16.52;100.00;100628.72;5050221;28;20516;-82
2023/09/05 05:09:28;;;;;;;21.02;17.08;;;;;;;16.55;100.00;100620.34;5052132;28;20037;-82
2023/09/05 05:11:55;;;;;;;21.70;17.20;;;;;;;16.59;100.00;100625.19;5050785;28;20033;-81
2023/09/05 05:14:21;;;;;;;21.02;17.50;;;;;;;16.63;100.00;100624.81;5052024;28;20036;-82
2023/09/05 05:16:48;;;;;;;20.30;16.00;;;;;;;16.66;100.00;100611.91;5017171;28;20482;-82
2023/09/05 05:19:14;;;;;;;23.38;16.10;;;;;;;16.69;100.00;100624.91;5050224;28;20040;-82
2023/09/05 05:21:39;;;;;;;24.98;17.23;;;;;;;16.68;100.00;100617.06;5045450;28;20496;-82
2023/09/05 05:24:06;;;;;;;26.85;17.35;;;;;;;16.66;100.00;100625.25;5053658;28;20035;-82
2023/09/05 05:26:32;;;;;;;21.65;16.73;;;;;;;16.60;100.00;100632.16;5009895;28;20061;-82
2023/09/05 05:28:58;;;;;;;22.50;16.60;;;;;;;16.52;100.00;100636.72;5045255;28;20067;-83
2023/09/05 05:31:25;;;;;;;24.33;18.60;;;;;;;16.40;100.00;100625.66;5045659;28;20033;-82
2023/09/05 05:33:51;;;;;;;23.67;17.00;;;;;;;16.29;100.00;100625.09;5045921;28;20112;-82
2023/09/05 05:36:17;;;;;;;19.85;17.02;;;;;;;16.21;100.00;100625.13;5081392;28;20036;-82
2023/09/05 05:38:43;;;;;;;25.10;17.67;;;;;;;16.15;100.00;100621.31;5070537;28;20043;-82
2023/09/05 05:41:09;;;;;;;23.67;17.52;;;;;;;16.10;100.00;100619.19;5061117;28;20392;-82
2023/09/05 05:43:39;;;;;;;23.35;17.30;;;;;;;16.10;100.00;100632.50;5065775;28;20028;-82
2023/09/05 05:46:05;;;;;;;23.35;17.40;;;;;;;16.01;100.00;100628.25;5071400;28;20113;-82
2023/09/05 05:48:30;;;;;;;21.45;17.77;;;;;;;16.00;100.00;100629.25;5076981;28;20539;-82
2023/09/05 05:50:56;;;;;;;24.40;18.83;;;;;;;15.94;100.00;100628.06;5048420;28;20028;-82
2023/09/05 05:53:23;;;;;;;24.08;18.13;;;;;;;15.94;100.00;100630.75;5042676;28;20522;-82
2023/09/05 05:55:49;;;;;;;29.02;17.50;;;;;;;15.95;100.00;100635.09;5040627;28;20071;-82
2023/09/05 05:58:15;;;;;;;19.67;16.30;;;;;;;15.99;100.00;100639.09;5065419;28;20066;-82
2023/09/05 06:00:45;;;;;;;22.48;17.17;;;;;;;16.10;100.00;100642.38;5071671;28;20071;-82
2023/09/05 06:03:12;;;;;;;19.67;16.05;;;;;;;16.20;100.00;100642.97;5056251;28;20025;-82
2023/09/05 06:05:38;;;;;;;22.88;16.17;;;;;;;16.27;100.00;100628.91;5070691;28;20446;-82
2023/09/05 06:08:04;;;;;;;22.48;17.73;;;;;;;16.23;100.00;100633.75;5069775;28;20064;-82
2023/09/05 06:10:30;;;;;;;22.60;17.13;;;;;;;16.16;100.00;100628.34;5079254;28;20118;-82
2023/09/05 06:12:56;;;;;;;25.83;18.00;;;;;;;16.18;100.00;100630.81;5081657;28;20085;-83
2023/09/05 06:15:22;;;;;;;22.20;18.05;;;;;;;16.20;100.00;100637.63;5048670;28;20069;-82
2023/09/05 06:17:48;;;;;;;22.48;17.33;;;;;;;16.25;100.00;100639.75;5071709;28;20448;-82
2023/09/05 06:20:14;;;;;;;20.30;16.95;;;;;;;16.26;100.00;100651.25;5069065;28;20032;-82
2023/09/05 06:22:40;;;;;;;21.48;16.95;;;;;;;16.26;100.00;100645.94;5051854;28;20037;-82
2023/09/05 06:25:06;;;;;;;21.45;17.35;;;;;;;16.32;100.00;100650.56;5079078;28;20040;-82
2023/09/05 06:27:32;;;;;;;25.85;16.88;;;;;;;16.33;100.00;100644.19;5083504;28;20101;-82
2023/09/05 06:29:58;;;;;;;21.27;17.52;;;;;;;16.30;100.00;100648.06;5050983;28;20476;-82
2023/09/05 06:32:23;;;;;;;24.52;17.75;;;;;;;16.31;100.00;100649.72;5076186;28;20097;-82
2023/09/05 06:34:50;;;;;;;20.05;17.45;;;;;;;16.34;100.00;100651.22;5040996;28;20037;-82
2023/09/05 06:37:16;;;;;;;21.02;16.75;;;;;;;16.41;100.00;100653.97;5037234;28;20059;-81
2023/09/05 06:39:42;;;;;;;24.60;17.13;;;;;;;16.49;100.00;100664.59;5078438;28;20028;-82
2023/09/05 06:42:09;;;;;;;26.88;17.83;;;;;;;16.53;100.00;100654.41;5067738;28;20043;-82
2023/09/05 06:44:40;;;;;;;22.55;17.52;;;;;;;16.55;100.00;100655.88;5080664;28;20032;-82
2023/09/05 06:47:06;;;;;;;22.40;16.65;;;;;;;16.57;100.00;100656.53;5061493;28;20045;-82
2023/09/05 06:49:31;;;;;;;23.00;17.55;;;;;;;16.61;100.00;100657.03;5066560;28;20028;-82
2023/09/05 06:51:57;;;;;;;22.55;16.88;;;;;;;16.66;100.00;100651.16;5058496;28;20033;-83
2023/09/05 06:54:23;;;;;;;20.08;16.75;;;;;;;16.74;100.00;100659.91;5055208;28;20036;-83
2023/09/05 06:56:48;;;;;;;24.77;15.95;;;;;;;16.85;100.00;100668.50;5053088;28;20048;-82
2023/09/05 06:59:17;;;;;;;23.17;16.08;;;;;;;16.99;100.00;100661.53;5067150;28;20133;-83
2023/09/05 07:01:44;;;;;;;22.13;16.38;;;;;;;17.07;100.00;100660.63;5050316;28;20043;-81
2023/09/05 07:04:10;;;;;;;19.25;15.32;;;;;;;17.15;100.00;100663.25;5067084;28;20074;-82
2023/09/05 07:06:37;;;;;;;20.73;16.95;;;;;;;17.23;100.00;100659.66;5067545;28;20090;-83
2023/09/05 07:09:03;;;;;;;19.90;15.02;;;;;;;17.30;100.00;100655.22;5052580;28;20032;-82
2023/09/05 07:11:29;;;;;;;19.15;15.18;;;;;;;17.38;100.00;100659.63;5057514;28;20037;-82
2023/09/05 07:13:54;;;;;;;18.17;15.02;;;;;;;17.46;100.00;100664.06;5062630;28;20381;-82
2023/09/05 07:16:20;;;;;;;19.00;15.48;;;;;;;17.54;100.00;100661.31;5031569;28;20051;-82
2023/09/05 07:18:46;;;;;;;20.83;14.30;;;;;;;17.58;100.00;100657.22;5073796;28;20040;-82
2023/09/05 07:21:12;;;;;;;23.92;16.08;;;;;;;17.59;100.00;100652.72;5057232;28;20040;-83
2023/09/05 07:23:38;;;;;;;17.58;14.68;;;;;;;17.61;100.00;100640.81;5039142;28;20037;-81
2023/09/05 07:26:05;;;;;;;21.63;13.95;;;;;;;17.74;100.00;100650.03;5069423;28;20033;-82
2023/09/05 07:28:31;;;;;;;22.10;14.25;;;;;;;17.84;100.00;100660.41;5054117;28;20036;-82
2023/09/05 07:30:57;;;;;;;17.77;13.15;;;;;;;17.94;100.00;100660.97;5055554;28;20055;-82
2023/09/05 07:33:22;;;;;;;20.42;13.85;;;;;;;18.00;100.00;100661.25;5058322;28;20040;-82
2023/09/05 07:35:48;;;;;;;18.70;13.02;;;;;;;17.97;100.00;100663.28;5081218;28;20051;-82
2023/09/05 07:38:15;;;;;;;18.85;13.88;;;;;;;18.00;100.00;100664.72;5072876;28;20428;-81
2023/09/05 07:40:41;;;;;;;17.23;13.00;;;;;;;18.08;100.00;100650.41;5079020;28;20028;-82
2023/09/05 07:43:07;;;;;;;16.83;12.52;;;;;;;18.07;100.00;100646.94;5055531;28;20047;-82
2023/09/05 07:45:33;;;;;;;17.33;12.25;;;;;;;18.02;100.00;100649.31;5062576;28;20040;-82
2023/09/05 07:47:59;;;;;;;13.60;11.90;;;;;;;18.02;100.00;100646.66;5073338;28;20110;-82
2023/09/05 07:50:25;;;;;;;13.60;11.65;;;;;;;18.06;100.00;100644.44;5070006;28;20539;-82
2023/09/05 07:52:51;;;;;;;17.10;12.00;;;;;;;18.10;100.00;100641.19;5021095;28;20392;-82
2023/09/05 07:55:16;;;;;;;18.70;11.45;;;;;;;18.08;100.00;100637.88;5053412;28;20064;-82
2023/09/05 07:57:42;;;;;;;14.85;10.43;;;;;;;18.08;100.00;100635.19;5062809;28;20032;-82
2023/09/05 08:00:08;;;;;;;17.42;10.82;;;;;;;18.05;100.00;100630.22;5073462;28;20032;-82
2023/09/05 08:02:39;;;;;;;20.50;12.52;;;;;;;18.03;100.00;100626.09;5062251;28;20040;-82
2023/09/05 08:05:06;;;;;;;17.38;11.13;;;;;;;18.02;100.00;100622.59;5059585;28;20028;-81
2023/09/05 08:07:32;;;;;;;14.25;11.23;;;;;;;18.04;100.00;100622.41;5041652;28;20113;-81
2023/09/05 08:10:00;;;;;;;12.98;10.48;;;;;;;18.00;100.00;100605.88;5060197;28;20040;-82
2023/09/05 08:12:26;;;;;;;17.48;11.48;;;;;;;17.99;100.00;100609.59;5077903;28;20097;-82
2023/09/05 08:14:52;;;;;;;15.13;11.80;;;;;;;18.01;100.00;100604.06;5073717;28;20427;-82
2023/09/05 08:17:18;;;;;;;16.00;11.27;;;;;;;18.04;100.00;100601.00;5073459;28;20094;-82
2023/09/05 08:19:44;;;;;;;13.27;10.98;;;;;;;18.03;100.00;100600.16;5073280;28;20064;-82
2023/09/05 08:22:12;;;;;;;16.67;12.48;;;;;;;18.05;100.00;100589.28;5082585;28;20548;-82
2023/09/05 08:24:38;;;;;;;16.10;11.52;;;;;;;18.02;100.00;100595.00;5072256;28;20125;-82
2023/09/05 08:27:05;;;;;;;16.92;11.85;;;;;;;18.01;100.00;100583.50;5079859;28;20063;-82
2023/09/05 08:29:32;;;;;;;14.07;11.98;;;;;;;18.04;100.00;100568.91;5055499;28;20041;-82
2023/09/05 08:32:01;;;;;;;15.00;11.38;;;;;;;18.06;100.00;100556.19;5054370;28;20075;-82
2023/09/05 08:34:28;;;;;;;15.25;10.63;;;;;;;18.01;100.00;100561.25;5069150;28;20053;-82
2023/09/05 08:36:54;;;;;;;17.45;11.85;;;;;;;17.99;100.00;100545.41;5054155;28;20031;-82
2023/09/05 08:39:20;;;;;;;17.55;12.55;;;;;;;17.94;100.00;100526.44;5075480;28;20491;-82
2023/09/05 08:41:46;;;;;;;19.88;12.70;;;;;;;17.93;100.00;100524.78;5051490;28;20032;-82
2023/09/05 08:44:12;;;;;;;15.77;12.38;;;;;;;17.89;100.00;100543.03;5067468;28;20052;-81
2023/09/05 08:46:39;;;;;;;17.27;12.68;;;;;;;17.90;100.00;100549.22;5036094;28;20472;-81
2023/09/05 08:49:04;;;;;;;14.80;11.70;;;;;;;17.92;100.00;100549.84;5054235;28;20032;-81
2023/09/05 08:51:32;;;;;;;17.80;11.63;;;;;;;17.96;100.00;100557.28;5074341;28;20544;-82
2023/09/05 08:54:01;;;;;;;16.55;11.93;;;;;;;17.98;100.00;100551.78;5054154;28;20046;-81
2023/09/05 08:56:27;;;;;;;17.98;12.32;;;;;;;18.01;100.00;100546.06;5055992;28;20112;-81
2023/09/05 08:58:55;;;;;;;16.33;11.27;;;;;;;18.08;100.00;100536.22;5078876;28;20090;-81
2023/09/05 09:01:21;;;;;;;14.73;12.35;;;;;;;18.13;100.00;100532.16;5057580;28;20050;-81
2023/09/05 09:03:47;;;;;;;18.27;12.70;;;;;;;18.18;100.00;100538.63;5035631;28;20132;-81
2023/09/05 09:06:13;;;;;;;18.30;13.02;;;;;;;18.26;100.00;100536.81;5067145;28;20039;-82
2023/09/05 09:08:43;;;;;;;17.88;12.18;;;;;;;18.38;100.00;100539.81;5072814;28;20037;-82
2023/09/05 09:11:10;;;;;;;18.85;13.52;;;;;;;18.46;100.00;100537.81;5071181;28;20119;-82
2023/09/05 09:13:38;;;;;;;20.83;12.13;;;;;;;18.51;100.00;100547.91;5031265;28;20098;-82
2023/09/05 09:16:04;;;;;;;15.63;11.80;;;;;;;18.57;100.00;100540.97;5050850;28;20029;-83
2023/09/05 09:18:32;;;;;;;18.88;12.13;;;;;;;18.61;100.00;100518.13;5075760;28;20047;-82
2023/09/05 09:21:03;;;;;;;19.45;12.07;;;;;;;18.63;100.00;100508.06;5073718;28;20032;-82
2023/09/05 09:23:35;;;;;;;15.98;12.60;;;;;;;18.59;100.00;100496.91;5044623;28;20028;-82
2023/09/05 09:26:02;;;;;;;16.08;11.68;;;;;;;18.62;100.00;100492.22;5075739;28;20032;-82
2023/09/05 09:28:31;;;;;;;27.95;13.07;;;;;;;18.60;100.00;100495.09;5070583;28;20623;-81
2023/09/05 09:31:06;;;;;;;15.65;11.98;;;;;;;18.63;100.00;100521.47;5070671;28;20107;-82
2023/09/05 09:33:33;;;;;;;16.38;12.45;;;;;;;18.58;100.00;100515.84;5066480;28;20040;-82
2023/09/05 09:36:07;;;;;;;16.27;10.52;;;;;;;18.63;100.00;100512.59;5055458;28;20051;-82
2023/09/05 09:38:34;;;;;;;20.58;11.40;;;;;;;18.58;100.00;100530.06;5074331;28;20547;-82
2023/09/05 09:41:01;;;;;;;17.90;10.90;;;;;;;18.64;100.00;100532.97;5047957;28;20041;-82
2023/09/05 09:43:28;;;;;;;15.25;10.75;;;;;;;18.67;100.00;100524.53;5036596;28;20043;-82
2023/09/05 09:45:53;;;;;;;16.77;10.90;;;;;;;18.68;100.00;100516.31;5055274;28;20043;-82
2023/09/05 09:48:22;;;;;;;15.38;10.95;;;;;;;18.74;100.00;100528.09;5069615;28;20036;-82
2023/09/05 09:50:49;;;;;;;16.48;10.60;;;;;;;18.77;100.00;100535.75;5044509;28;20060;-81
2023/09/05 09:53:22;;;;;;;13.75;10.43;;;;;;;18.86;100.00;100533.72;5079195;28;20028;-82
2023/09/05 09:55:51;;;;;;;18.58;10.35;;;;;;;18.91;100.00;100544.69;5057185;28;20025;-82
2023/09/05 09:58:22;;;;;;;16.10;9.70;;;;;;;18.96;100.00;100530.69;5041867;28;20055;-82
2023/09/05 10:00:49;;;;;;;18.25;10.50;;;;;;;19.00;100.00;100536.50;5082323;28;20498;-82
2023/09/05 10:03:16;;;;;;;14.18;9.45;;;;;;;19.01;100.00;100522.91;5067960;28;20028;-82
2023/09/05 10:05:43;;;;;;;14.02;9.93;;;;;;;19.04;100.00;100514.47;5047279;28;20116;-82
2023/09/05 10:08:10;;;;;;;16.52;9.63;;;;;;;19.04;100.00;100533.22;4961147;28;20165;-82
2023/09/05 10:10:39;;;;;;;15.57;9.38;;;;;;;19.09;100.00;100556.75;5069144;28;20079;-81
2023/09/05 10:13:09;;;;;;;17.92;11.07;;;;;;;19.15;100.00;100576.56;5050076;28;20028;-82
2023/09/05 10:15:36;;;;;;;19.92;10.25;;;;;;;19.16;100.00;100570.19;5040658;28;20056;-83
2023/09/05 10:18:02;;;;;;;16.10;9.85;;;;;;;19.20;100.00;100579.47;5055247;28;20473;-83
2023/09/05 10:20:30;;;;;;;16.13;9.68;;;;;;;19.24;100.00;100579.91;5044928;28;20043;-82
2023/09/05 10:22:55;;;;;;;18.02;10.40;;;;;;;19.28;100.00;100557.88;5052674;28;20036;-81
2023/09/05 10:25:23;;;;;;;21.25;9.88;;;;;;;19.36;100.00;100580.16;5070467;28;20032;-82
2023/09/05 10:27:49;;;;;;;15.68;9.32;;;;;;;19.38;100.00;100570.91;5048386;28;20024;-82
2023/09/05 10:30:15;;;;;;;13.80;9.50;;;;;;;19.44;100.00;100561.22;5048526;28;20119;-83
2023/09/05 10:32:44;;;;;;;13.75;8.82;;;;;;;19.51;100.00;100564.75;5054473;28;20131;-82
2023/09/05 10:35:16;;;;;;;13.25;9.38;;;;;;;19.65;100.00;100583.56;5051422;28;20044;-82
2023/09/05 10:37:48;;;;;;;18.65;9.50;;;;;;;19.71;100.00;100570.19;5047563;28;20029;-82
2023/09/05 10:40:15;;;;;;;13.98;9.25;;;;;;;19.73;100.00;100563.78;5060406;28;20099;-82
2023/09/05 10:42:54;;;;;;;15.77;9.55;;;;;;;19.82;100.00;100565.25;5045410;28;20041;-83
2023/09/05 10:45:22;;;;;;;15.48;9.32;;;;;;;19.88;100.00;100560.91;5047197;28;20507;-82
2023/09/05 10:47:49;;;;;;;21.80;9.70;;;;;;;19.88;100.00;100556.41;5047812;28;20041;-83
2023/09/05 10:50:19;;;;;;;14.90;9.20;;;;;;;19.93;100.00;100545.06;5037038;28;20058;-82
2023/09/05 10:52:49;;;;;;;13.95;8.68;;;;;;;19.97;100.00;100559.72;5051468;28;20056;-83
2023/09/05 10:55:25;;;;;;;13.93;9.00;;;;;;;20.09;100.00;100557.28;5047913;28;20090;-83
2023/09/05 10:57:51;;;;;;;;;;;;;;;20.06;100.00;100558.53;5044322;28;20045;-82
2023/09/05 11:00:20;;;;;;;;;;;;;;;20.11;100.00;100555.22;5063415;28;19920;-83
2023/09/05 11:02:48;;;;;;;13.13;7.68;;;;;;;20.27;100.00;100553.16;5046327;28;20368;-83
2023/09/05 11:05:18;;;;;;;18.10;8.02;;;;;;;20.37;100.00;100555.44;5052908;28;20059;-83